This is the latest recevied weather packets stored in our database for station/object Seibranz. If no packets are shown the sender has not sent any weather packets the latest 10 day(s).
| Time | Temp. | Humidity | Pressure | Rain* | Wind** | Luminosity | Snow |
|---|---|---|---|---|---|---|---|
| 1778027529 | 8.89° C | 91% | 1007.8 hPa | 0 mm | - | - | - |
| 1778025729 | 8.89° C | 91% | 1008 hPa | 0 mm | - | - | - |
| 1778023929 | 8.33° C | 92% | 1008.4 hPa | 0 mm | - | - | - |
| 1778022129 | 8.89° C | 91% | 1008.5 hPa | 0 mm | - | - | - |
| 1778020330 | 9.44° C | 91% | 1008.7 hPa | 0 mm | - | - | - |
| 1778016731 | 8.89° C | 92% | 1008.7 hPa | 2.29 mm | - | - | - |
| 1778014935 | 8.89° C | 92% | 1008.8 hPa | 2.29 mm | - | - | - |
| 1778013129 | 9.44° C | 91% | 1008.7 hPa | 2.29 mm | - | - | - |
| 1778011330 | 10° C | 91% | 1008.8 hPa | 2.29 mm | - | - | - |
| 1778009529 | 10.56° C | 87% | 1008.6 hPa | 1.27 mm | - | - | - |
| 1778007735 | 12.78° C | 83% | 1008 hPa | 0.51 mm | - | - | - |
| 1778005932 | 12.78° C | 87% | 1007.1 hPa | 0.51 mm | - | - | - |
| 1778004131 | 12.78° C | 87% | 1007 hPa | 0.51 mm | - | - | - |
| 1778002330 | 13.33° C | 84% | 1006.9 hPa | 0.51 mm | - | - | - |
| 1778000530 | 14.44° C | 79% | 1006.3 hPa | 0.51 mm | - | - | - |
| 1777998731 | 14.44° C | 82% | 1006 hPa | 0.51 mm | - | - | - |
| 1777995130 | 15° C | 75% | 1006.7 hPa | 0.25 mm | - | - | - |
| 1777993336 | 16.11° C | 68% | 1006.4 hPa | 0.25 mm | - | - | - |
| 1777991532 | 16.11° C | 68% | 1006.2 hPa | 0.25 mm | - | - | - |
| 1777989730 | 15.56° C | 68% | 1006.4 hPa | 0.25 mm | - | - | - |
| 1777987930 | 15.56° C | 71% | 1006.5 hPa | 0.25 mm | - | - | - |
| 1777986130 | 15° C | 81% | 1006.6 hPa | 0.25 mm | - | - | - |
| 1777984330 | 14.44° C | 85% | 1006.6 hPa | 0.25 mm | - | - | - |
| 1777982530 | 13.33° C | 87% | 1006.9 hPa | 0.25 mm | - | - | - |
| 1777980730 | 13.33° C | 86% | 1007.1 hPa | 0.25 mm | - | - | - |
* Rain since midnight (hover to see other rain measurements)
** Current wind speed in m/s (hover to see current wind gust speed)